createdAt,value
2022-08-31T00:03:40.536Z,3.65
2022-08-31T00:08:35.292Z,3.47
2022-08-31T00:13:29.963Z,2.85
2022-08-31T00:23:29.384Z,3.65
2022-08-31T00:28:24.635Z,3.67
2022-08-31T00:38:24.891Z,3.95
2022-08-31T00:43:47.805Z,3.10
2022-08-31T00:48:57.612Z,3.03
2022-08-31T00:53:50.930Z,2.83
2022-08-31T01:09:03.319Z,2.85
2022-08-31T01:34:33.690Z,2.72
2022-08-31T01:54:44.208Z,3.53
2022-08-31T01:59:36.179Z,3.47
2022-08-31T02:04:29.182Z,3.58
2022-08-31T02:09:22.616Z,4.30
2022-08-31T02:19:22.017Z,4.07
2022-08-31T02:44:38.148Z,5.40
2022-08-31T02:54:40.512Z,4.82
2022-08-31T02:59:32.220Z,4.15
2022-08-31T03:04:24.141Z,3.97
2022-08-31T03:09:16.463Z,4.13
2022-08-31T03:14:08.205Z,3.55
2022-08-31T03:18:59.944Z,3.83
2022-08-31T03:23:51.712Z,4.55
2022-08-31T03:33:50.471Z,6.95
2022-08-31T03:38:42.864Z,7.75
2022-08-31T03:43:37.649Z,4.85
2022-08-31T03:48:29.364Z,3.33
2022-08-31T03:58:30.913Z,4.15
2022-08-31T04:03:24.768Z,3.88
2022-08-31T04:08:23.391Z,5.05
2022-08-31T04:18:21.848Z,4.07
2022-08-31T04:23:23.195Z,6.28
2022-08-31T04:28:15.594Z,7.35
2022-08-31T04:33:08.883Z,6.60
2022-08-31T04:38:01.066Z,6.15
2022-08-31T04:42:54.107Z,6.78
2022-08-31T04:47:46.717Z,5.28
2022-08-31T04:52:39.924Z,5.65
2022-08-31T04:57:39.218Z,9.57
2022-08-31T05:12:45.043Z,6.03
2022-08-31T05:22:46.630Z,6.13
2022-08-31T05:27:40.889Z,5.55
2022-08-31T05:32:34.116Z,5.10
2022-08-31T05:37:26.959Z,6.82
2022-08-31T05:42:20.400Z,7.32
2022-08-31T05:47:13.071Z,6.18
2022-08-31T05:52:08.705Z,6.10
2022-08-31T05:57:04.573Z,5.07
2022-08-31T06:01:58.531Z,5.90
2022-08-31T06:17:09.787Z,5.70
2022-08-31T06:22:03.057Z,5.30
2022-08-31T06:26:59.904Z,6.07
2022-08-31T06:31:52.239Z,4.60
2022-08-31T07:07:28.681Z,3.78
2022-08-31T07:12:22.305Z,4.38
2022-08-31T07:17:14.413Z,4.13
2022-08-31T07:22:11.422Z,4.25
2022-08-31T07:27:14.503Z,5.20
2022-08-31T07:32:12.725Z,3.58
2022-08-31T07:37:27.211Z,3.58
2022-08-31T07:42:25.307Z,5.68
2022-08-31T07:47:19.948Z,4.75
2022-08-31T07:52:21.886Z,3.90
2022-08-31T07:57:14.275Z,5.63
2022-08-31T08:02:07.375Z,5.70
2022-08-31T08:07:00.709Z,4.28
2022-08-31T08:12:01.265Z,5.97
2022-08-31T08:16:55.588Z,5.13
2022-08-31T08:21:48.340Z,5.20
2022-08-31T08:26:54.100Z,5.35
2022-08-31T14:02:37.075Z,5.10
2022-08-31T14:07:45.740Z,6.97
2022-08-31T14:12:54.724Z,5.43
2022-08-31T14:23:29.461Z,5.50
2022-08-31T14:28:36.162Z,7.32
2022-08-31T14:33:27.938Z,6.28
2022-08-31T14:38:19.855Z,7.85
2022-08-31T14:43:17.422Z,6.55
2022-08-31T14:48:10.862Z,5.93
2022-08-31T14:53:02.679Z,7.30
2022-08-31T14:58:05.031Z,6.10
2022-08-31T15:02:56.953Z,5.90
2022-08-31T15:07:51.033Z,6.95
2022-08-31T15:12:42.873Z,6.57
2022-08-31T15:17:35.938Z,6.55
2022-08-31T15:22:27.946Z,6.57
2022-08-31T15:27:23.316Z,8.70
2022-08-31T15:32:16.803Z,7.10
2022-08-31T15:37:09.367Z,6.85
2022-08-31T15:42:08.928Z,7.57
2022-08-31T15:47:19.236Z,10.40
2022-08-31T15:52:12.016Z,7.90
2022-08-31T15:57:05.998Z,9.70
2022-08-31T16:01:58.877Z,6.50
2022-08-31T16:06:52.529Z,6.68
2022-08-31T16:11:44.418Z,9.55
2022-08-31T16:16:40.995Z,6.57
2022-08-31T16:21:37.560Z,7.05
2022-08-31T17:07:56.486Z,6.82
2022-08-31T17:28:15.446Z,8.18
2022-08-31T19:11:51.414Z,6.70
2022-08-31T20:08:19.468Z,6.90
2022-08-31T22:01:09.203Z,7.03
2022-08-31T22:32:01.015Z,6.70
2022-08-31T22:42:04.066Z,7.53
2022-08-31T23:02:18.485Z,8.32
2022-08-31T23:12:18.317Z,6.80
2022-08-31T23:17:10.481Z,8.02
2022-08-31T23:22:07.465Z,10.00
2022-08-31T23:32:20.297Z,10.70
2022-08-31T23:47:31.208Z,9.93
2022-08-31T23:52:26.992Z,10.60
